sensor_id;sensor_type;location;lat;lon;timestamp;P1;durP1;ratioP1;P2;durP2;ratioP2
34982;SDS011;21187;50.976;13.720;2023-05-15T00:01:02;3.17;;;1.90;;
34982;SDS011;21187;50.976;13.720;2023-05-15T00:06:04;3.15;;;2.38;;
34982;SDS011;21187;50.976;13.720;2023-05-15T00:11:06;4.03;;;2.10;;
34982;SDS011;21187;50.976;13.720;2023-05-15T00:16:08;5.07;;;2.47;;
34982;SDS011;21187;50.976;13.720;2023-05-15T00:21:10;2.92;;;2.15;;
34982;SDS011;21187;50.976;13.720;2023-05-15T00:26:12;3.72;;;2.53;;
34982;SDS011;21187;50.976;13.720;2023-05-15T00:31:16;3.45;;;2.10;;
34982;SDS011;21187;50.976;13.720;2023-05-15T00:36:18;5.35;;;2.70;;
34982;SDS011;21187;50.976;13.720;2023-05-15T00:41:24;2.83;;;2.42;;
34982;SDS011;21187;50.976;13.720;2023-05-15T00:46:29;4.35;;;2.72;;
34982;SDS011;21187;50.976;13.720;2023-05-15T00:51:33;5.60;;;2.90;;
34982;SDS011;21187;50.976;13.720;2023-05-15T00:56:35;3.95;;;2.97;;
34982;SDS011;21187;50.976;13.720;2023-05-15T01:01:37;4.38;;;2.90;;
34982;SDS011;21187;50.976;13.720;2023-05-15T01:06:39;6.13;;;3.53;;
34982;SDS011;21187;50.976;13.720;2023-05-15T01:11:41;5.28;;;3.05;;
34982;SDS011;21187;50.976;13.720;2023-05-15T01:16:47;4.55;;;3.20;;
34982;SDS011;21187;50.976;13.720;2023-05-15T01:32:19;4.93;;;3.10;;
34982;SDS011;21187;50.976;13.720;2023-05-15T01:37:27;4.78;;;3.03;;
34982;SDS011;21187;50.976;13.720;2023-05-15T01:42:32;6.75;;;3.75;;
34982;SDS011;21187;50.976;13.720;2023-05-15T01:47:39;8.13;;;3.97;;
34982;SDS011;21187;50.976;13.720;2023-05-15T01:52:46;7.28;;;4.43;;
34982;SDS011;21187;50.976;13.720;2023-05-15T01:57:51;5.78;;;3.72;;
34982;SDS011;21187;50.976;13.720;2023-05-15T02:02:56;6.45;;;3.78;;
34982;SDS011;21187;50.976;13.720;2023-05-15T02:07:59;5.90;;;4.13;;
34982;SDS011;21187;50.976;13.720;2023-05-15T02:13:06;6.05;;;4.30;;
34982;SDS011;21187;50.976;13.720;2023-05-15T02:18:09;7.47;;;3.83;;
34982;SDS011;21187;50.976;13.720;2023-05-15T02:23:11;7.07;;;4.32;;
34982;SDS011;21187;50.976;13.720;2023-05-15T02:28:20;6.40;;;4.22;;
34982;SDS011;21187;50.976;13.720;2023-05-15T02:33:47;6.10;;;4.03;;
34982;SDS011;21187;50.976;13.720;2023-05-15T02:38:58;8.30;;;3.80;;
34982;SDS011;21187;50.976;13.720;2023-05-15T02:44:01;5.75;;;3.55;;
34982;SDS011;21187;50.976;13.720;2023-05-15T02:49:03;4.93;;;2.92;;
34982;SDS011;21187;50.976;13.720;2023-05-15T02:54:06;5.50;;;3.50;;
34982;SDS011;21187;50.976;13.720;2023-05-15T02:59:10;8.95;;;3.47;;
34982;SDS011;21187;50.976;13.720;2023-05-15T03:04:14;7.25;;;3.80;;
34982;SDS011;21187;50.976;13.720;2023-05-15T03:09:16;6.00;;;3.75;;
34982;SDS011;21187;50.976;13.720;2023-05-15T03:14:18;5.18;;;3.15;;
34982;SDS011;21187;50.976;13.720;2023-05-15T03:19:20;4.30;;;2.90;;
34982;SDS011;21187;50.976;13.720;2023-05-15T03:24:22;3.95;;;2.83;;
34982;SDS011;21187;50.976;13.720;2023-05-15T03:29:24;5.90;;;2.70;;
34982;SDS011;21187;50.976;13.720;2023-05-15T03:34:26;5.05;;;3.67;;
34982;SDS011;21187;50.976;13.720;2023-05-15T03:39:28;3.85;;;2.88;;
34982;SDS011;21187;50.976;13.720;2023-05-15T03:44:29;4.85;;;2.58;;
34982;SDS011;21187;50.976;13.720;2023-05-15T03:49:31;3.30;;;2.25;;
34982;SDS011;21187;50.976;13.720;2023-05-15T03:54:34;4.53;;;2.53;;
34982;SDS011;21187;50.976;13.720;2023-05-15T03:59:36;4.70;;;2.55;;
34982;SDS011;21187;50.976;13.720;2023-05-15T04:04:38;6.15;;;2.50;;
34982;SDS011;21187;50.976;13.720;2023-05-15T04:09:40;5.18;;;2.67;;
34982;SDS011;21187;50.976;13.720;2023-05-15T04:14:41;3.42;;;2.40;;
34982;SDS011;21187;50.976;13.720;2023-05-15T04:19:43;3.88;;;2.65;;
34982;SDS011;21187;50.976;13.720;2023-05-15T04:24:48;4.88;;;2.80;;
34982;SDS011;21187;50.976;13.720;2023-05-15T04:29:50;3.90;;;2.80;;
34982;SDS011;21187;50.976;13.720;2023-05-15T04:34:52;6.30;;;2.60;;
34982;SDS011;21187;50.976;13.720;2023-05-15T04:39:54;5.43;;;3.10;;
34982;SDS011;21187;50.976;13.720;2023-05-15T04:44:56;5.57;;;2.90;;
34982;SDS011;21187;50.976;13.720;2023-05-15T04:49:58;3.70;;;2.95;;
34982;SDS011;21187;50.976;13.720;2023-05-15T04:54:59;5.38;;;2.67;;
34982;SDS011;21187;50.976;13.720;2023-05-15T05:00:02;8.48;;;4.22;;
34982;SDS011;21187;50.976;13.720;2023-05-15T05:05:10;8.20;;;3.45;;
34982;SDS011;21187;50.976;13.720;2023-05-15T05:10:15;7.47;;;3.17;;
34982;SDS011;21187;50.976;13.720;2023-05-15T05:15:17;5.50;;;3.45;;
34982;SDS011;21187;50.976;13.720;2023-05-15T05:20:19;9.75;;;3.78;;
34982;SDS011;21187;50.976;13.720;2023-05-15T05:25:21;6.05;;;3.55;;
34982;SDS011;21187;50.976;13.720;2023-05-15T05:30:23;7.82;;;3.30;;
34982;SDS011;21187;50.976;13.720;2023-05-15T05:35:25;4.28;;;2.83;;
34982;SDS011;21187;50.976;13.720;2023-05-15T05:40:28;4.93;;;3.38;;
34982;SDS011;21187;50.976;13.720;2023-05-15T05:45:30;6.40;;;3.53;;
34982;SDS011;21187;50.976;13.720;2023-05-15T05:50:32;6.95;;;3.30;;
34982;SDS011;21187;50.976;13.720;2023-05-15T05:55:33;4.22;;;2.90;;
34982;SDS011;21187;50.976;13.720;2023-05-15T06:00:35;5.80;;;3.28;;
34982;SDS011;21187;50.976;13.720;2023-05-15T06:05:37;7.68;;;3.60;;
34982;SDS011;21187;50.976;13.720;2023-05-15T06:10:39;7.13;;;3.75;;
34982;SDS011;21187;50.976;13.720;2023-05-15T06:15:42;6.82;;;3.40;;
34982;SDS011;21187;50.976;13.720;2023-05-15T06:20:46;7.47;;;4.45;;
34982;SDS011;21187;50.976;13.720;2023-05-15T06:25:48;8.30;;;3.95;;
34982;SDS011;21187;50.976;13.720;2023-05-15T06:30:50;7.13;;;4.32;;
34982;SDS011;21187;50.976;13.720;2023-05-15T06:35:51;7.22;;;4.28;;
34982;SDS011;21187;50.976;13.720;2023-05-15T06:40:53;8.25;;;4.78;;
34982;SDS011;21187;50.976;13.720;2023-05-15T06:45:55;8.32;;;4.72;;
34982;SDS011;21187;50.976;13.720;2023-05-15T06:50:57;9.52;;;3.92;;
34982;SDS011;21187;50.976;13.720;2023-05-15T06:55:59;8.55;;;4.97;;
34982;SDS011;21187;50.976;13.720;2023-05-15T07:01:01;9.95;;;4.45;;
34982;SDS011;21187;50.976;13.720;2023-05-15T07:06:07;8.57;;;4.82;;
34982;SDS011;21187;50.976;13.720;2023-05-15T07:11:09;8.93;;;4.78;;
34982;SDS011;21187;50.976;13.720;2023-05-15T07:16:11;7.50;;;4.70;;
34982;SDS011;21187;50.976;13.720;2023-05-15T07:21:13;10.32;;;4.95;;
34982;SDS011;21187;50.976;13.720;2023-05-15T07:26:15;10.10;;;5.18;;
34982;SDS011;21187;50.976;13.720;2023-05-15T07:31:28;10.98;;;5.93;;
34982;SDS011;21187;50.976;13.720;2023-05-15T07:36:31;11.30;;;5.35;;
34982;SDS011;21187;50.976;13.720;2023-05-15T07:41:34;11.65;;;6.13;;
34982;SDS011;21187;50.976;13.720;2023-05-15T07:46:36;13.82;;;6.32;;
34982;SDS011;21187;50.976;13.720;2023-05-15T07:51:39;11.02;;;5.93;;
34982;SDS011;21187;50.976;13.720;2023-05-15T07:56:41;13.52;;;6.30;;
34982;SDS011;21187;50.976;13.720;2023-05-15T08:01:43;12.25;;;6.20;;
34982;SDS011;21187;50.976;13.720;2023-05-15T08:06:45;10.68;;;6.10;;
34982;SDS011;21187;50.976;13.720;2023-05-15T08:11:47;15.43;;;5.57;;
34982;SDS011;21187;50.976;13.720;2023-05-15T08:16:49;10.25;;;5.60;;
34982;SDS011;21187;50.976;13.720;2023-05-15T08:21:52;9.30;;;6.07;;
34982;SDS011;21187;50.976;13.720;2023-05-15T08:26:55;13.57;;;6.20;;
34982;SDS011;21187;50.976;13.720;2023-05-15T08:31:57;12.30;;;6.20;;
34982;SDS011;21187;50.976;13.720;2023-05-15T08:36:59;14.13;;;6.40;;
34982;SDS011;21187;50.976;13.720;2023-05-15T08:47:09;11.90;;;6.25;;
34982;SDS011;21187;50.976;13.720;2023-05-15T08:52:11;9.63;;;5.97;;
34982;SDS011;21187;50.976;13.720;2023-05-15T08:57:13;11.35;;;5.97;;
34982;SDS011;21187;50.976;13.720;2023-05-15T09:02:16;12.05;;;6.30;;
34982;SDS011;21187;50.976;13.720;2023-05-15T09:07:19;13.73;;;5.88;;
34982;SDS011;21187;50.976;13.720;2023-05-15T09:12:21;11.02;;;6.07;;
34982;SDS011;21187;50.976;13.720;2023-05-15T09:17:25;13.82;;;7.13;;
34982;SDS011;21187;50.976;13.720;2023-05-15T09:22:28;10.55;;;6.80;;
34982;SDS011;21187;50.976;13.720;2023-05-15T09:27:41;14.38;;;7.30;;
34982;SDS011;21187;50.976;13.720;2023-05-15T09:32:44;11.13;;;7.17;;
34982;SDS011;21187;50.976;13.720;2023-05-15T09:37:56;16.70;;;7.43;;
34982;SDS011;21187;50.976;13.720;2023-05-15T09:43:00;14.90;;;7.80;;
34982;SDS011;21187;50.976;13.720;2023-05-15T09:48:05;10.73;;;7.88;;
34982;SDS011;21187;50.976;13.720;2023-05-15T09:53:10;12.70;;;7.45;;
34982;SDS011;21187;50.976;13.720;2023-05-15T09:58:16;15.43;;;8.48;;
34982;SDS011;21187;50.976;13.720;2023-05-15T10:03:19;15.52;;;7.40;;
34982;SDS011;21187;50.976;13.720;2023-05-15T10:08:24;16.60;;;7.85;;
34982;SDS011;21187;50.976;13.720;2023-05-15T10:13:29;10.75;;;6.55;;
34982;SDS011;21187;50.976;13.720;2023-05-15T10:18:32;12.15;;;6.32;;
34982;SDS011;21187;50.976;13.720;2023-05-15T10:23:36;13.70;;;5.85;;
34982;SDS011;21187;50.976;13.720;2023-05-15T10:28:42;10.63;;;5.95;;
34982;SDS011;21187;50.976;13.720;2023-05-15T10:33:46;8.50;;;4.85;;
34982;SDS011;21187;50.976;13.720;2023-05-15T10:38:49;9.55;;;5.65;;
34982;SDS011;21187;50.976;13.720;2023-05-15T10:43:52;10.13;;;5.28;;
34982;SDS011;21187;50.976;13.720;2023-05-15T10:48:54;9.88;;;5.68;;
34982;SDS011;21187;50.976;13.720;2023-05-15T10:53:56;14.02;;;5.20;;
34982;SDS011;21187;50.976;13.720;2023-05-15T10:59:04;9.10;;;5.47;;
34982;SDS011;21187;50.976;13.720;2023-05-15T11:04:12;10.20;;;4.65;;
34982;SDS011;21187;50.976;13.720;2023-05-15T11:09:35;10.73;;;6.32;;
34982;SDS011;21187;50.976;13.720;2023-05-15T11:14:39;10.02;;;6.18;;
34982;SDS011;21187;50.976;13.720;2023-05-15T11:24:53;15.57;;;6.70;;
34982;SDS011;21187;50.976;13.720;2023-05-15T11:30:01;10.25;;;5.65;;
34982;SDS011;21187;50.976;13.720;2023-05-15T11:40:13;16.20;;;6.82;;
34982;SDS011;21187;50.976;13.720;2023-05-15T11:45:20;22.30;;;6.68;;
34982;SDS011;21187;50.976;13.720;2023-05-15T11:50:23;16.77;;;7.45;;
34982;SDS011;21187;50.976;13.720;2023-05-15T11:55:25;12.60;;;7.47;;
34982;SDS011;21187;50.976;13.720;2023-05-15T12:00:29;10.13;;;6.90;;
34982;SDS011;21187;50.976;13.720;2023-05-15T12:05:31;9.82;;;5.38;;
34982;SDS011;21187;50.976;13.720;2023-05-15T12:10:38;7.88;;;5.53;;
34982;SDS011;21187;50.976;13.720;2023-05-15T12:15:42;9.77;;;6.43;;
34982;SDS011;21187;50.976;13.720;2023-05-15T12:20:45;13.90;;;6.43;;
34982;SDS011;21187;50.976;13.720;2023-05-15T12:25:48;11.63;;;6.90;;
34982;SDS011;21187;50.976;13.720;2023-05-15T12:30:51;12.60;;;6.65;;
34982;SDS011;21187;50.976;13.720;2023-05-15T12:35:54;14.48;;;7.47;;
34982;SDS011;21187;50.976;13.720;2023-05-15T12:41:02;13.15;;;7.22;;
34982;SDS011;21187;50.976;13.720;2023-05-15T12:46:03;10.80;;;7.25;;
34982;SDS011;21187;50.976;13.720;2023-05-15T12:51:06;13.80;;;7.05;;
34982;SDS011;21187;50.976;13.720;2023-05-15T12:56:08;12.93;;;6.10;;
34982;SDS011;21187;50.976;13.720;2023-05-15T13:01:15;8.45;;;6.00;;
34982;SDS011;21187;50.976;13.720;2023-05-15T13:06:18;7.75;;;5.25;;
34982;SDS011;21187;50.976;13.720;2023-05-15T13:11:29;6.55;;;3.97;;
34982;SDS011;21187;50.976;13.720;2023-05-15T13:16:34;17.88;;;6.30;;
34982;SDS011;21187;50.976;13.720;2023-05-15T13:21:37;5.13;;;3.63;;
34982;SDS011;21187;50.976;13.720;2023-05-15T13:26:39;11.00;;;3.72;;
34982;SDS011;21187;50.976;13.720;2023-05-15T13:31:41;7.03;;;3.70;;
34982;SDS011;21187;50.976;13.720;2023-05-15T13:36:43;5.13;;;3.25;;
34982;SDS011;21187;50.976;13.720;2023-05-15T13:41:46;4.97;;;3.60;;
34982;SDS011;21187;50.976;13.720;2023-05-15T13:46:47;8.20;;;3.58;;
34982;SDS011;21187;50.976;13.720;2023-05-15T13:51:49;9.75;;;4.03;;
34982;SDS011;21187;50.976;13.720;2023-05-15T13:56:51;5.32;;;3.30;;
34982;SDS011;21187;50.976;13.720;2023-05-15T14:01:53;8.82;;;5.47;;
34982;SDS011;21187;50.976;13.720;2023-05-15T14:06:55;9.40;;;5.43;;
34982;SDS011;21187;50.976;13.720;2023-05-15T14:11:58;12.25;;;5.22;;
34982;SDS011;21187;50.976;13.720;2023-05-15T14:17:00;8.88;;;4.30;;
34982;SDS011;21187;50.976;13.720;2023-05-15T14:22:02;12.10;;;4.22;;
34982;SDS011;21187;50.976;13.720;2023-05-15T14:27:04;7.82;;;3.60;;
34982;SDS011;21187;50.976;13.720;2023-05-15T14:32:06;9.73;;;4.47;;
34982;SDS011;21187;50.976;13.720;2023-05-15T14:37:08;8.07;;;5.07;;
34982;SDS011;21187;50.976;13.720;2023-05-15T14:42:10;10.00;;;5.05;;
34982;SDS011;21187;50.976;13.720;2023-05-15T14:47:12;12.27;;;5.35;;
34982;SDS011;21187;50.976;13.720;2023-05-15T14:52:14;7.38;;;5.28;;
34982;SDS011;21187;50.976;13.720;2023-05-15T14:57:16;7.13;;;5.03;;
34982;SDS011;21187;50.976;13.720;2023-05-15T15:02:20;8.25;;;5.15;;
34982;SDS011;21187;50.976;13.720;2023-05-15T15:07:27;8.80;;;5.63;;
34982;SDS011;21187;50.976;13.720;2023-05-15T15:12:29;13.40;;;6.07;;
34982;SDS011;21187;50.976;13.720;2023-05-15T15:17:31;13.25;;;5.32;;
34982;SDS011;21187;50.976;13.720;2023-05-15T15:22:33;7.00;;;4.88;;
34982;SDS011;21187;50.976;13.720;2023-05-15T15:27:36;7.35;;;5.28;;
34982;SDS011;21187;50.976;13.720;2023-05-15T15:32:38;8.98;;;4.80;;
34982;SDS011;21187;50.976;13.720;2023-05-15T15:37:40;8.55;;;4.82;;
34982;SDS011;21187;50.976;13.720;2023-05-15T15:42:42;17.60;;;6.25;;
34982;SDS011;21187;50.976;13.720;2023-05-15T15:47:44;13.52;;;5.40;;
34982;SDS011;21187;50.976;13.720;2023-05-15T15:52:46;9.63;;;4.50;;
34982;SDS011;21187;50.976;13.720;2023-05-15T15:57:48;10.82;;;4.50;;
34982;SDS011;21187;50.976;13.720;2023-05-15T16:02:50;11.85;;;4.22;;
34982;SDS011;21187;50.976;13.720;2023-05-15T16:07:52;7.65;;;3.83;;
34982;SDS011;21187;50.976;13.720;2023-05-15T16:12:54;8.73;;;4.32;;
34982;SDS011;21187;50.976;13.720;2023-05-15T16:17:56;6.38;;;4.25;;
34982;SDS011;21187;50.976;13.720;2023-05-15T16:22:58;6.80;;;4.30;;
34982;SDS011;21187;50.976;13.720;2023-05-15T16:28:00;18.35;;;4.85;;
34982;SDS011;21187;50.976;13.720;2023-05-15T16:33:01;7.63;;;4.47;;
34982;SDS011;21187;50.976;13.720;2023-05-15T16:38:04;6.15;;;3.90;;
34982;SDS011;21187;50.976;13.720;2023-05-15T16:43:06;6.32;;;3.72;;
34982;SDS011;21187;50.976;13.720;2023-05-15T16:48:08;13.20;;;3.85;;
34982;SDS011;21187;50.976;13.720;2023-05-15T16:53:10;6.22;;;3.30;;
34982;SDS011;21187;50.976;13.720;2023-05-15T16:58:12;10.77;;;3.40;;
34982;SDS011;21187;50.976;13.720;2023-05-15T17:03:16;4.10;;;3.00;;
34982;SDS011;21187;50.976;13.720;2023-05-15T17:08:19;4.18;;;2.92;;
34982;SDS011;21187;50.976;13.720;2023-05-15T17:13:21;5.70;;;2.67;;
34982;SDS011;21187;50.976;13.720;2023-05-15T17:18:23;6.93;;;3.40;;
34982;SDS011;21187;50.976;13.720;2023-05-15T17:23:25;6.88;;;3.72;;
34982;SDS011;21187;50.976;13.720;2023-05-15T17:28:27;7.22;;;3.80;;
34982;SDS011;21187;50.976;13.720;2023-05-15T17:33:29;7.50;;;3.80;;
34982;SDS011;21187;50.976;13.720;2023-05-15T17:38:31;6.53;;;3.72;;
34982;SDS011;21187;50.976;13.720;2023-05-15T17:43:33;12.80;;;3.28;;
34982;SDS011;21187;50.976;13.720;2023-05-15T17:48:35;7.25;;;3.78;;
34982;SDS011;21187;50.976;13.720;2023-05-15T17:53:37;8.38;;;3.60;;
34982;SDS011;21187;50.976;13.720;2023-05-15T17:58:39;9.18;;;3.80;;
34982;SDS011;21187;50.976;13.720;2023-05-15T18:03:41;10.27;;;3.50;;
34982;SDS011;21187;50.976;13.720;2023-05-15T18:08:43;4.65;;;3.13;;
34982;SDS011;21187;50.976;13.720;2023-05-15T18:13:46;7.10;;;3.40;;
34982;SDS011;21187;50.976;13.720;2023-05-15T18:18:48;7.05;;;3.55;;
34982;SDS011;21187;50.976;13.720;2023-05-15T18:23:53;9.77;;;3.97;;
34982;SDS011;21187;50.976;13.720;2023-05-15T18:28:56;10.80;;;5.85;;
34982;SDS011;21187;50.976;13.720;2023-05-15T18:33:59;5.30;;;3.22;;
34982;SDS011;21187;50.976;13.720;2023-05-15T18:39:02;10.15;;;3.83;;
34982;SDS011;21187;50.976;13.720;2023-05-15T18:44:04;6.35;;;3.60;;
34982;SDS011;21187;50.976;13.720;2023-05-15T18:49:06;5.13;;;3.40;;
34982;SDS011;21187;50.976;13.720;2023-05-15T18:54:11;8.32;;;4.35;;
34982;SDS011;21187;50.976;13.720;2023-05-15T18:59:13;17.52;;;7.82;;
34982;SDS011;21187;50.976;13.720;2023-05-15T19:04:14;9.77;;;5.78;;
34982;SDS011;21187;50.976;13.720;2023-05-15T19:09:16;8.27;;;4.10;;
34982;SDS011;21187;50.976;13.720;2023-05-15T19:14:18;9.18;;;4.57;;
34982;SDS011;21187;50.976;13.720;2023-05-15T19:19:20;5.30;;;3.90;;
34982;SDS011;21187;50.976;13.720;2023-05-15T19:24:22;9.98;;;4.65;;
34982;SDS011;21187;50.976;13.720;2023-05-15T19:29:25;5.35;;;3.83;;
34982;SDS011;21187;50.976;13.720;2023-05-15T19:34:27;10.27;;;4.55;;
34982;SDS011;21187;50.976;13.720;2023-05-15T19:39:30;12.98;;;5.70;;
34982;SDS011;21187;50.976;13.720;2023-05-15T19:44:34;5.90;;;4.18;;
34982;SDS011;21187;50.976;13.720;2023-05-15T19:49:35;8.73;;;4.30;;
34982;SDS011;21187;50.976;13.720;2023-05-15T19:54:37;11.43;;;5.15;;
34982;SDS011;21187;50.976;13.720;2023-05-15T19:59:39;8.98;;;4.45;;
34982;SDS011;21187;50.976;13.720;2023-05-15T20:04:41;7.00;;;4.38;;
34982;SDS011;21187;50.976;13.720;2023-05-15T20:09:43;8.55;;;4.68;;
34982;SDS011;21187;50.976;13.720;2023-05-15T20:14:48;6.07;;;4.53;;
34982;SDS011;21187;50.976;13.720;2023-05-15T20:19:50;7.63;;;3.85;;
34982;SDS011;21187;50.976;13.720;2023-05-15T20:24:54;18.20;;;12.48;;
34982;SDS011;21187;50.976;13.720;2023-05-15T20:29:56;11.57;;;4.75;;
34982;SDS011;21187;50.976;13.720;2023-05-15T20:34:58;7.10;;;4.28;;
34982;SDS011;21187;50.976;13.720;2023-05-15T20:40:01;9.65;;;4.85;;
34982;SDS011;21187;50.976;13.720;2023-05-15T20:45:05;9.20;;;4.00;;
34982;SDS011;21187;50.976;13.720;2023-05-15T20:50:09;8.85;;;4.97;;
34982;SDS011;21187;50.976;13.720;2023-05-15T20:55:12;9.38;;;4.18;;
34982;SDS011;21187;50.976;13.720;2023-05-15T21:00:16;6.60;;;4.30;;
34982;SDS011;21187;50.976;13.720;2023-05-15T21:05:19;7.80;;;4.07;;
34982;SDS011;21187;50.976;13.720;2023-05-15T21:10:21;7.40;;;4.13;;
34982;SDS011;21187;50.976;13.720;2023-05-15T21:15:23;8.02;;;4.43;;
34982;SDS011;21187;50.976;13.720;2023-05-15T21:20:25;9.93;;;5.32;;
34982;SDS011;21187;50.976;13.720;2023-05-15T21:25:28;9.85;;;4.57;;
34982;SDS011;21187;50.976;13.720;2023-05-15T21:30:29;11.23;;;5.45;;
34982;SDS011;21187;50.976;13.720;2023-05-15T21:35:32;8.90;;;5.30;;
34982;SDS011;21187;50.976;13.720;2023-05-15T21:40:34;8.02;;;4.93;;
34982;SDS011;21187;50.976;13.720;2023-05-15T21:45:37;8.05;;;5.93;;
34982;SDS011;21187;50.976;13.720;2023-05-15T21:50:38;9.55;;;5.70;;
34982;SDS011;21187;50.976;13.720;2023-05-15T21:55:40;8.85;;;5.75;;
34982;SDS011;21187;50.976;13.720;2023-05-15T22:00:42;9.05;;;5.32;;
34982;SDS011;21187;50.976;13.720;2023-05-15T22:05:44;12.05;;;5.63;;
34982;SDS011;21187;50.976;13.720;2023-05-15T22:10:47;13.02;;;5.47;;
34982;SDS011;21187;50.976;13.720;2023-05-15T22:15:49;10.88;;;5.60;;
34982;SDS011;21187;50.976;13.720;2023-05-15T22:20:51;9.85;;;5.38;;
34982;SDS011;21187;50.976;13.720;2023-05-15T22:25:54;15.38;;;6.05;;
34982;SDS011;21187;50.976;13.720;2023-05-15T22:30:56;12.18;;;5.75;;
34982;SDS011;21187;50.976;13.720;2023-05-15T22:35:58;9.43;;;5.32;;
34982;SDS011;21187;50.976;13.720;2023-05-15T22:41:00;13.30;;;6.18;;
34982;SDS011;21187;50.976;13.720;2023-05-15T22:46:02;15.18;;;6.55;;
34982;SDS011;21187;50.976;13.720;2023-05-15T22:51:04;10.38;;;6.00;;
34982;SDS011;21187;50.976;13.720;2023-05-15T22:56:06;10.20;;;5.85;;
34982;SDS011;21187;50.976;13.720;2023-05-15T23:01:08;14.38;;;6.90;;
34982;SDS011;21187;50.976;13.720;2023-05-15T23:06:16;8.30;;;6.07;;
34982;SDS011;21187;50.976;13.720;2023-05-15T23:11:18;10.70;;;6.07;;
34982;SDS011;21187;50.976;13.720;2023-05-15T23:16:21;10.43;;;6.03;;
34982;SDS011;21187;50.976;13.720;2023-05-15T23:21:25;12.50;;;6.72;;
34982;SDS011;21187;50.976;13.720;2023-05-15T23:26:27;12.07;;;7.00;;
34982;SDS011;21187;50.976;13.720;2023-05-15T23:31:29;12.57;;;6.75;;
34982;SDS011;21187;50.976;13.720;2023-05-15T23:36:30;11.05;;;7.78;;
34982;SDS011;21187;50.976;13.720;2023-05-15T23:41:32;13.77;;;6.65;;
34982;SDS011;21187;50.976;13.720;2023-05-15T23:46:35;11.80;;;7.60;;
34982;SDS011;21187;50.976;13.720;2023-05-15T23:51:38;12.30;;;6.90;;
34982;SDS011;21187;50.976;13.720;2023-05-15T23:56:40;13.63;;;7.68;;
